sensor_id;sensor_type;location;lat;lon;timestamp;P1;durP1;ratioP1;P2;durP2;ratioP2
11691;SDS011;33659;42.672;23.354;2024-01-25T00:02:17;14.97;;;8.07;;
11691;SDS011;33659;42.672;23.354;2024-01-25T00:04:45;10.83;;;7.43;;
11691;SDS011;33659;42.672;23.354;2024-01-25T00:07:11;12.43;;;7.17;;
11691;SDS011;33659;42.672;23.354;2024-01-25T00:09:39;14.23;;;7.97;;
11691;SDS011;33659;42.672;23.354;2024-01-25T00:12:06;14.97;;;8.73;;
11691;SDS011;33659;42.672;23.354;2024-01-25T00:14:32;18.40;;;10.43;;
11691;SDS011;33659;42.672;23.354;2024-01-25T00:16:59;17.27;;;9.00;;
11691;SDS011;33659;42.672;23.354;2024-01-25T00:19:26;13.23;;;7.57;;
11691;SDS011;33659;42.672;23.354;2024-01-25T00:21:54;14.20;;;8.97;;
11691;SDS011;33659;42.672;23.354;2024-01-25T00:24:20;16.10;;;9.33;;
11691;SDS011;33659;42.672;23.354;2024-01-25T00:26:47;15.47;;;9.57;;
11691;SDS011;33659;42.672;23.354;2024-01-25T00:29:14;17.60;;;10.17;;
11691;SDS011;33659;42.672;23.354;2024-01-25T00:31:41;18.67;;;9.87;;
11691;SDS011;33659;42.672;23.354;2024-01-25T00:34:07;15.63;;;9.47;;
11691;SDS011;33659;42.672;23.354;2024-01-25T00:36:35;17.20;;;9.53;;
11691;SDS011;33659;42.672;23.354;2024-01-25T00:39:03;14.00;;;9.57;;
11691;SDS011;33659;42.672;23.354;2024-01-25T00:41:30;17.57;;;9.77;;
11691;SDS011;33659;42.672;23.354;2024-01-25T00:43:58;16.40;;;8.70;;
11691;SDS011;33659;42.672;23.354;2024-01-25T00:46:25;13.47;;;8.33;;
11691;SDS011;33659;42.672;23.354;2024-01-25T00:48:52;13.77;;;8.80;;
11691;SDS011;33659;42.672;23.354;2024-01-25T00:51:20;13.03;;;7.70;;
11691;SDS011;33659;42.672;23.354;2024-01-25T00:53:48;13.00;;;7.73;;
11691;SDS011;33659;42.672;23.354;2024-01-25T00:56:16;12.17;;;7.20;;
11691;SDS011;33659;42.672;23.354;2024-01-25T00:58:44;13.50;;;7.73;;
11691;SDS011;33659;42.672;23.354;2024-01-25T01:01:11;12.63;;;8.00;;
11691;SDS011;33659;42.672;23.354;2024-01-25T01:03:38;13.77;;;9.10;;
11691;SDS011;33659;42.672;23.354;2024-01-25T01:06:06;13.83;;;8.90;;
11691;SDS011;33659;42.672;23.354;2024-01-25T01:08:33;10.60;;;7.73;;
11691;SDS011;33659;42.672;23.354;2024-01-25T01:11:00;13.27;;;7.30;;
11691;SDS011;33659;42.672;23.354;2024-01-25T01:13:28;15.10;;;8.43;;
11691;SDS011;33659;42.672;23.354;2024-01-25T01:15:55;12.90;;;8.23;;
11691;SDS011;33659;42.672;23.354;2024-01-25T01:18:22;10.63;;;7.17;;
11691;SDS011;33659;42.672;23.354;2024-01-25T01:20:48;15.17;;;7.93;;
11691;SDS011;33659;42.672;23.354;2024-01-25T01:23:15;14.47;;;8.40;;
11691;SDS011;33659;42.672;23.354;2024-01-25T01:25:41;12.23;;;6.87;;
11691;SDS011;33659;42.672;23.354;2024-01-25T01:28:08;9.07;;;6.23;;
11691;SDS011;33659;42.672;23.354;2024-01-25T01:30:36;14.23;;;7.57;;
11691;SDS011;33659;42.672;23.354;2024-01-25T01:33:06;15.03;;;8.50;;
11691;SDS011;33659;42.672;23.354;2024-01-25T01:35:33;14.53;;;8.90;;
11691;SDS011;33659;42.672;23.354;2024-01-25T01:37:59;15.70;;;9.40;;
11691;SDS011;33659;42.672;23.354;2024-01-25T01:40:26;19.10;;;10.47;;
11691;SDS011;33659;42.672;23.354;2024-01-25T01:42:58;17.70;;;10.10;;
11691;SDS011;33659;42.672;23.354;2024-01-25T01:45:25;17.90;;;9.17;;
11691;SDS011;33659;42.672;23.354;2024-01-25T01:47:53;14.80;;;8.57;;
11691;SDS011;33659;42.672;23.354;2024-01-25T01:50:20;16.23;;;9.60;;
11691;SDS011;33659;42.672;23.354;2024-01-25T01:52:47;14.20;;;8.00;;
11691;SDS011;33659;42.672;23.354;2024-01-25T01:55:14;15.17;;;7.30;;
11691;SDS011;33659;42.672;23.354;2024-01-25T01:57:42;13.87;;;8.30;;
11691;SDS011;33659;42.672;23.354;2024-01-25T02:00:10;13.73;;;8.23;;
11691;SDS011;33659;42.672;23.354;2024-01-25T02:02:37;10.83;;;7.27;;
11691;SDS011;33659;42.672;23.354;2024-01-25T02:05:06;13.53;;;7.63;;
11691;SDS011;33659;42.672;23.354;2024-01-25T02:07:33;11.03;;;7.77;;
11691;SDS011;33659;42.672;23.354;2024-01-25T02:09:59;18.00;;;9.20;;
11691;SDS011;33659;42.672;23.354;2024-01-25T02:12:26;12.70;;;8.20;;
11691;SDS011;33659;42.672;23.354;2024-01-25T02:14:53;12.03;;;8.13;;
11691;SDS011;33659;42.672;23.354;2024-01-25T02:17:19;14.80;;;7.80;;
11691;SDS011;33659;42.672;23.354;2024-01-25T02:19:46;13.97;;;7.87;;
11691;SDS011;33659;42.672;23.354;2024-01-25T02:22:16;13.47;;;8.07;;
11691;SDS011;33659;42.672;23.354;2024-01-25T02:24:44;17.00;;;8.60;;
11691;SDS011;33659;42.672;23.354;2024-01-25T02:27:11;11.43;;;7.73;;
11691;SDS011;33659;42.672;23.354;2024-01-25T02:29:38;12.03;;;7.37;;
11691;SDS011;33659;42.672;23.354;2024-01-25T02:32:05;10.57;;;7.20;;
11691;SDS011;33659;42.672;23.354;2024-01-25T02:34:32;17.17;;;7.67;;
11691;SDS011;33659;42.672;23.354;2024-01-25T02:36:58;8.33;;;5.97;;
11691;SDS011;33659;42.672;23.354;2024-01-25T02:39:26;11.13;;;6.83;;
11691;SDS011;33659;42.672;23.354;2024-01-25T02:41:53;9.43;;;6.90;;
11691;SDS011;33659;42.672;23.354;2024-01-25T02:44:20;15.50;;;8.77;;
11691;SDS011;33659;42.672;23.354;2024-01-25T02:46:46;13.13;;;8.17;;
11691;SDS011;33659;42.672;23.354;2024-01-25T02:49:13;14.70;;;8.90;;
11691;SDS011;33659;42.672;23.354;2024-01-25T02:51:40;15.40;;;8.83;;
11691;SDS011;33659;42.672;23.354;2024-01-25T02:54:06;17.70;;;10.00;;
11691;SDS011;33659;42.672;23.354;2024-01-25T02:56:34;12.77;;;8.87;;
11691;SDS011;33659;42.672;23.354;2024-01-25T02:59:01;14.50;;;9.87;;
11691;SDS011;33659;42.672;23.354;2024-01-25T03:01:27;12.70;;;8.70;;
11691;SDS011;33659;42.672;23.354;2024-01-25T03:03:53;12.80;;;8.33;;
11691;SDS011;33659;42.672;23.354;2024-01-25T03:06:20;10.90;;;5.37;;
11691;SDS011;33659;42.672;23.354;2024-01-25T03:08:46;8.80;;;4.93;;
11691;SDS011;33659;42.672;23.354;2024-01-25T03:11:13;7.93;;;4.40;;
11691;SDS011;33659;42.672;23.354;2024-01-25T03:13:41;3.77;;;3.17;;
11691;SDS011;33659;42.672;23.354;2024-01-25T03:16:08;4.20;;;3.20;;
11691;SDS011;33659;42.672;23.354;2024-01-25T03:18:34;2.30;;;1.70;;
11691;SDS011;33659;42.672;23.354;2024-01-25T03:21:01;2.13;;;1.40;;
11691;SDS011;33659;42.672;23.354;2024-01-25T03:23:28;2.07;;;1.83;;
11691;SDS011;33659;42.672;23.354;2024-01-25T03:25:54;1.30;;;1.20;;
11691;SDS011;33659;42.672;23.354;2024-01-25T03:28:21;1.07;;;1.03;;
11691;SDS011;33659;42.672;23.354;2024-01-25T03:30:49;1.63;;;1.20;;
11691;SDS011;33659;42.672;23.354;2024-01-25T03:33:16;1.30;;;1.30;;
11691;SDS011;33659;42.672;23.354;2024-01-25T03:35:42;1.83;;;1.03;;
11691;SDS011;33659;42.672;23.354;2024-01-25T03:38:09;3.40;;;1.30;;
11691;SDS011;33659;42.672;23.354;2024-01-25T03:40:35;1.27;;;1.27;;
11691;SDS011;33659;42.672;23.354;2024-01-25T03:43:02;1.40;;;1.30;;
11691;SDS011;33659;42.672;23.354;2024-01-25T03:45:29;1.50;;;1.40;;
11691;SDS011;33659;42.672;23.354;2024-01-25T03:47:59;1.30;;;1.30;;
11691;SDS011;33659;42.672;23.354;2024-01-25T03:50:26;1.00;;;1.00;;
11691;SDS011;33659;42.672;23.354;2024-01-25T03:52:52;1.03;;;1.03;;
11691;SDS011;33659;42.672;23.354;2024-01-25T03:55:19;1.33;;;1.23;;
11691;SDS011;33659;42.672;23.354;2024-01-25T03:57:46;1.23;;;1.20;;
11691;SDS011;33659;42.672;23.354;2024-01-25T04:00:13;1.20;;;1.10;;
11691;SDS011;33659;42.672;23.354;2024-01-25T04:02:40;1.20;;;1.10;;
11691;SDS011;33659;42.672;23.354;2024-01-25T04:05:08;1.53;;;1.43;;
11691;SDS011;33659;42.672;23.354;2024-01-25T04:07:35;3.17;;;1.70;;
11691;SDS011;33659;42.672;23.354;2024-01-25T04:10:02;1.37;;;1.27;;
11691;SDS011;33659;42.672;23.354;2024-01-25T04:12:29;2.23;;;1.60;;
11691;SDS011;33659;42.672;23.354;2024-01-25T04:14:56;2.20;;;1.50;;
11691;SDS011;33659;42.672;23.354;2024-01-25T04:17:23;1.73;;;1.30;;
11691;SDS011;33659;42.672;23.354;2024-01-25T04:19:50;1.63;;;1.40;;
11691;SDS011;33659;42.672;23.354;2024-01-25T04:22:18;1.43;;;1.23;;
11691;SDS011;33659;42.672;23.354;2024-01-25T04:24:45;2.47;;;1.70;;
11691;SDS011;33659;42.672;23.354;2024-01-25T04:27:13;1.80;;;1.70;;
11691;SDS011;33659;42.672;23.354;2024-01-25T04:29:40;2.23;;;1.83;;
11691;SDS011;33659;42.672;23.354;2024-01-25T04:32:07;2.87;;;1.70;;
11691;SDS011;33659;42.672;23.354;2024-01-25T04:34:35;3.70;;;2.27;;
11691;SDS011;33659;42.672;23.354;2024-01-25T04:37:02;2.10;;;1.90;;
11691;SDS011;33659;42.672;23.354;2024-01-25T04:39:30;2.27;;;2.07;;
11691;SDS011;33659;42.672;23.354;2024-01-25T04:41:56;2.93;;;2.13;;
11691;SDS011;33659;42.672;23.354;2024-01-25T04:44:23;4.07;;;2.37;;
11691;SDS011;33659;42.672;23.354;2024-01-25T04:46:50;3.10;;;2.40;;
11691;SDS011;33659;42.672;23.354;2024-01-25T04:49:17;3.63;;;2.90;;
11691;SDS011;33659;42.672;23.354;2024-01-25T04:51:44;3.67;;;2.57;;
11691;SDS011;33659;42.672;23.354;2024-01-25T04:54:10;3.20;;;2.47;;
11691;SDS011;33659;42.672;23.354;2024-01-25T04:56:41;2.73;;;2.53;;
11691;SDS011;33659;42.672;23.354;2024-01-25T04:59:08;4.33;;;2.70;;
11691;SDS011;33659;42.672;23.354;2024-01-25T05:01:35;3.07;;;2.77;;
11691;SDS011;33659;42.672;23.354;2024-01-25T05:04:01;4.70;;;2.77;;
11691;SDS011;33659;42.672;23.354;2024-01-25T05:06:28;3.63;;;2.53;;
11691;SDS011;33659;42.672;23.354;2024-01-25T05:08:55;4.30;;;2.33;;
11691;SDS011;33659;42.672;23.354;2024-01-25T05:11:22;5.93;;;2.90;;
11691;SDS011;33659;42.672;23.354;2024-01-25T05:13:50;2.07;;;1.90;;
11691;SDS011;33659;42.672;23.354;2024-01-25T05:16:17;2.30;;;1.80;;
11691;SDS011;33659;42.672;23.354;2024-01-25T05:18:43;2.87;;;2.30;;
11691;SDS011;33659;42.672;23.354;2024-01-25T05:21:10;4.03;;;2.40;;
11691;SDS011;33659;42.672;23.354;2024-01-25T05:23:36;5.47;;;2.47;;
11691;SDS011;33659;42.672;23.354;2024-01-25T05:26:03;2.13;;;2.03;;
11691;SDS011;33659;42.672;23.354;2024-01-25T05:28:31;1.77;;;1.60;;
11691;SDS011;33659;42.672;23.354;2024-01-25T05:30:59;3.17;;;2.07;;
11691;SDS011;33659;42.672;23.354;2024-01-25T05:33:26;2.20;;;2.00;;
11691;SDS011;33659;42.672;23.354;2024-01-25T05:35:53;2.50;;;2.30;;
11691;SDS011;33659;42.672;23.354;2024-01-25T05:38:19;4.37;;;2.43;;
11691;SDS011;33659;42.672;23.354;2024-01-25T05:40:46;3.90;;;2.37;;
11691;SDS011;33659;42.672;23.354;2024-01-25T05:43:12;5.97;;;2.33;;
11691;SDS011;33659;42.672;23.354;2024-01-25T05:45:39;2.30;;;2.10;;
11691;SDS011;33659;42.672;23.354;2024-01-25T05:48:07;3.33;;;1.90;;
11691;SDS011;33659;42.672;23.354;2024-01-25T05:50:34;3.27;;;2.10;;
11691;SDS011;33659;42.672;23.354;2024-01-25T05:53:00;3.50;;;1.83;;
11691;SDS011;33659;42.672;23.354;2024-01-25T05:55:27;3.30;;;2.00;;
11691;SDS011;33659;42.672;23.354;2024-01-25T05:57:54;2.60;;;1.63;;
11691;SDS011;33659;42.672;23.354;2024-01-25T06:00:20;1.97;;;1.70;;
11691;SDS011;33659;42.672;23.354;2024-01-25T06:02:49;3.80;;;2.40;;
11691;SDS011;33659;42.672;23.354;2024-01-25T06:05:17;2.80;;;2.00;;
11691;SDS011;33659;42.672;23.354;2024-01-25T06:07:44;2.43;;;1.80;;
11691;SDS011;33659;42.672;23.354;2024-01-25T06:10:11;3.97;;;2.10;;
11691;SDS011;33659;42.672;23.354;2024-01-25T06:12:38;2.20;;;1.97;;
11691;SDS011;33659;42.672;23.354;2024-01-25T06:15:05;3.40;;;1.90;;
11691;SDS011;33659;42.672;23.354;2024-01-25T06:17:32;2.53;;;2.30;;
11691;SDS011;33659;42.672;23.354;2024-01-25T06:19:59;2.77;;;2.30;;
11691;SDS011;33659;42.672;23.354;2024-01-25T06:22:27;5.30;;;2.60;;
11691;SDS011;33659;42.672;23.354;2024-01-25T06:24:54;4.97;;;2.47;;
11691;SDS011;33659;42.672;23.354;2024-01-25T06:27:20;4.63;;;2.27;;
11691;SDS011;33659;42.672;23.354;2024-01-25T06:29:47;5.20;;;2.37;;
11691;SDS011;33659;42.672;23.354;2024-01-25T06:32:14;2.27;;;1.70;;
11691;SDS011;33659;42.672;23.354;2024-01-25T06:34:40;3.30;;;2.17;;
11691;SDS011;33659;42.672;23.354;2024-01-25T06:37:07;5.40;;;2.40;;
11691;SDS011;33659;42.672;23.354;2024-01-25T06:39:37;4.53;;;2.53;;
11691;SDS011;33659;42.672;23.354;2024-01-25T06:42:04;3.77;;;2.60;;
11691;SDS011;33659;42.672;23.354;2024-01-25T06:44:31;4.00;;;3.13;;
11691;SDS011;33659;42.672;23.354;2024-01-25T06:46:57;2.30;;;2.10;;
11691;SDS011;33659;42.672;23.354;2024-01-25T06:49:24;5.53;;;2.70;;
11691;SDS011;33659;42.672;23.354;2024-01-25T06:51:51;3.30;;;2.13;;
11691;SDS011;33659;42.672;23.354;2024-01-25T06:54:17;5.50;;;2.37;;
11691;SDS011;33659;42.672;23.354;2024-01-25T06:56:45;5.37;;;2.27;;
11691;SDS011;33659;42.672;23.354;2024-01-25T06:59:12;5.73;;;2.53;;
11691;SDS011;33659;42.672;23.354;2024-01-25T07:01:38;5.07;;;2.00;;
11691;SDS011;33659;42.672;23.354;2024-01-25T07:04:04;3.03;;;1.90;;
11691;SDS011;33659;42.672;23.354;2024-01-25T07:06:31;2.20;;;2.00;;
11691;SDS011;33659;42.672;23.354;2024-01-25T07:08:57;2.57;;;1.40;;
11691;SDS011;33659;42.672;23.354;2024-01-25T07:11:24;3.07;;;1.90;;
11691;SDS011;33659;42.672;23.354;2024-01-25T07:13:52;2.40;;;1.70;;
11691;SDS011;33659;42.672;23.354;2024-01-25T07:16:19;3.73;;;2.30;;
11691;SDS011;33659;42.672;23.354;2024-01-25T07:18:46;3.43;;;2.20;;
11691;SDS011;33659;42.672;23.354;2024-01-25T07:21:13;3.90;;;2.23;;
11691;SDS011;33659;42.672;23.354;2024-01-25T07:23:40;3.97;;;2.47;;
11691;SDS011;33659;42.672;23.354;2024-01-25T07:26:06;7.23;;;2.40;;
11691;SDS011;33659;42.672;23.354;2024-01-25T07:28:33;2.97;;;1.93;;
11691;SDS011;33659;42.672;23.354;2024-01-25T07:31:01;4.87;;;2.07;;
11691;SDS011;33659;42.672;23.354;2024-01-25T07:33:28;3.97;;;2.03;;
11691;SDS011;33659;42.672;23.354;2024-01-25T07:35:54;4.07;;;2.40;;
11691;SDS011;33659;42.672;23.354;2024-01-25T07:38:23;7.37;;;2.37;;
11691;SDS011;33659;42.672;23.354;2024-01-25T07:40:50;4.40;;;2.57;;
11691;SDS011;33659;42.672;23.354;2024-01-25T07:43:17;4.77;;;2.07;;
11691;SDS011;33659;42.672;23.354;2024-01-25T07:45:44;2.60;;;2.40;;
11691;SDS011;33659;42.672;23.354;2024-01-25T07:48:12;6.47;;;4.03;;
11691;SDS011;33659;42.672;23.354;2024-01-25T07:50:39;4.47;;;2.30;;
11691;SDS011;33659;42.672;23.354;2024-01-25T07:53:06;3.67;;;2.53;;
11691;SDS011;33659;42.672;23.354;2024-01-25T07:55:32;3.87;;;2.67;;
11691;SDS011;33659;42.672;23.354;2024-01-25T07:57:59;7.00;;;2.57;;
11691;SDS011;33659;42.672;23.354;2024-01-25T08:00:25;3.70;;;2.00;;
11691;SDS011;33659;42.672;23.354;2024-01-25T08:02:52;4.63;;;2.50;;
11691;SDS011;33659;42.672;23.354;2024-01-25T08:05:20;6.10;;;2.70;;
11691;SDS011;33659;42.672;23.354;2024-01-25T08:07:47;3.53;;;2.50;;
11691;SDS011;33659;42.672;23.354;2024-01-25T08:10:14;5.73;;;2.37;;
11691;SDS011;33659;42.672;23.354;2024-01-25T08:12:40;3.03;;;2.20;;
11691;SDS011;33659;42.672;23.354;2024-01-25T08:15:09;5.13;;;2.67;;
11691;SDS011;33659;42.672;23.354;2024-01-25T08:17:36;5.53;;;2.37;;
11691;SDS011;33659;42.672;23.354;2024-01-25T08:20:03;4.23;;;2.43;;
11691;SDS011;33659;42.672;23.354;2024-01-25T08:22:33;4.50;;;2.50;;
11691;SDS011;33659;42.672;23.354;2024-01-25T08:24:59;3.33;;;2.00;;
11691;SDS011;33659;42.672;23.354;2024-01-25T08:27:26;3.20;;;2.23;;
11691;SDS011;33659;42.672;23.354;2024-01-25T08:29:53;6.53;;;2.30;;
11691;SDS011;33659;42.672;23.354;2024-01-25T08:32:19;6.20;;;2.70;;
11691;SDS011;33659;42.672;23.354;2024-01-25T08:34:46;6.17;;;2.03;;
11691;SDS011;33659;42.672;23.354;2024-01-25T08:37:12;3.27;;;2.23;;
11691;SDS011;33659;42.672;23.354;2024-01-25T08:39:40;4.63;;;2.50;;
11691;SDS011;33659;42.672;23.354;2024-01-25T08:42:26;2.47;;;2.03;;
11691;SDS011;33659;42.672;23.354;2024-01-25T08:44:52;2.03;;;1.87;;
11691;SDS011;33659;42.672;23.354;2024-01-25T08:47:19;5.87;;;2.20;;
11691;SDS011;33659;42.672;23.354;2024-01-25T08:49:46;2.43;;;1.90;;
11691;SDS011;33659;42.672;23.354;2024-01-25T08:52:12;3.43;;;2.57;;
11691;SDS011;33659;42.672;23.354;2024-01-25T08:54:41;3.77;;;2.47;;
11691;SDS011;33659;42.672;23.354;2024-01-25T08:57:08;3.77;;;2.20;;
11691;SDS011;33659;42.672;23.354;2024-01-25T08:59:35;4.07;;;2.33;;
11691;SDS011;33659;42.672;23.354;2024-01-25T09:02:03;5.63;;;2.63;;
11691;SDS011;33659;42.672;23.354;2024-01-25T09:04:30;3.90;;;2.37;;
11691;SDS011;33659;42.672;23.354;2024-01-25T09:06:57;8.27;;;2.97;;
11691;SDS011;33659;42.672;23.354;2024-01-25T09:09:24;5.67;;;2.30;;
11691;SDS011;33659;42.672;23.354;2024-01-25T09:11:52;4.57;;;2.23;;
11691;SDS011;33659;42.672;23.354;2024-01-25T09:14:19;4.00;;;2.30;;
11691;SDS011;33659;42.672;23.354;2024-01-25T09:16:45;5.57;;;2.07;;
11691;SDS011;33659;42.672;23.354;2024-01-25T09:19:12;4.17;;;2.27;;
11691;SDS011;33659;42.672;23.354;2024-01-25T09:21:39;4.50;;;2.60;;
11691;SDS011;33659;42.672;23.354;2024-01-25T09:24:06;6.77;;;2.47;;
11691;SDS011;33659;42.672;23.354;2024-01-25T09:26:33;5.67;;;2.43;;
11691;SDS011;33659;42.672;23.354;2024-01-25T09:29:01;3.67;;;2.23;;
11691;SDS011;33659;42.672;23.354;2024-01-25T09:31:28;5.00;;;2.30;;
11691;SDS011;33659;42.672;23.354;2024-01-25T09:33:54;3.07;;;2.40;;
11691;SDS011;33659;42.672;23.354;2024-01-25T09:36:21;6.53;;;2.57;;
11691;SDS011;33659;42.672;23.354;2024-01-25T09:38:48;5.37;;;2.70;;
11691;SDS011;33659;42.672;23.354;2024-01-25T09:41:14;4.00;;;2.13;;
11691;SDS011;33659;42.672;23.354;2024-01-25T09:43:42;6.90;;;2.60;;
11691;SDS011;33659;42.672;23.354;2024-01-25T09:46:10;2.80;;;2.40;;
11691;SDS011;33659;42.672;23.354;2024-01-25T09:48:39;6.47;;;2.83;;
11691;SDS011;33659;42.672;23.354;2024-01-25T09:51:08;9.97;;;3.27;;
11691;SDS011;33659;42.672;23.354;2024-01-25T09:53:37;5.47;;;2.70;;
11691;SDS011;33659;42.672;23.354;2024-01-25T09:56:06;8.73;;;3.20;;
11691;SDS011;33659;42.672;23.354;2024-01-25T09:58:36;7.33;;;3.17;;
11691;SDS011;33659;42.672;23.354;2024-01-25T10:01:05;6.87;;;2.60;;
11691;SDS011;33659;42.672;23.354;2024-01-25T10:03:35;5.37;;;3.00;;
11691;SDS011;33659;42.672;23.354;2024-01-25T10:06:02;6.20;;;2.87;;
11691;SDS011;33659;42.672;23.354;2024-01-25T10:08:29;8.63;;;3.10;;
11691;SDS011;33659;42.672;23.354;2024-01-25T10:10:56;6.13;;;2.77;;
11691;SDS011;33659;42.672;23.354;2024-01-25T10:13:23;6.37;;;2.40;;
11691;SDS011;33659;42.672;23.354;2024-01-25T10:15:49;7.30;;;2.90;;
11691;SDS011;33659;42.672;23.354;2024-01-25T10:18:16;7.73;;;3.23;;
11691;SDS011;33659;42.672;23.354;2024-01-25T10:20:44;3.63;;;2.90;;
11691;SDS011;33659;42.672;23.354;2024-01-25T10:23:11;4.33;;;3.13;;
11691;SDS011;33659;42.672;23.354;2024-01-25T10:25:37;11.87;;;3.40;;
11691;SDS011;33659;42.672;23.354;2024-01-25T10:28:05;4.13;;;2.50;;
11691;SDS011;33659;42.672;23.354;2024-01-25T10:33:03;5.13;;;2.80;;
11691;SDS011;33659;42.672;23.354;2024-01-25T10:35:31;6.03;;;3.00;;
11691;SDS011;33659;42.672;23.354;2024-01-25T10:37:59;8.50;;;2.90;;
11691;SDS011;33659;42.672;23.354;2024-01-25T10:40:27;6.57;;;3.20;;
11691;SDS011;33659;42.672;23.354;2024-01-25T10:42:54;7.30;;;2.67;;
11691;SDS011;33659;42.672;23.354;2024-01-25T10:45:21;5.97;;;2.60;;
11691;SDS011;33659;42.672;23.354;2024-01-25T10:47:48;9.03;;;3.33;;
11691;SDS011;33659;42.672;23.354;2024-01-25T10:50:14;9.70;;;3.20;;
11691;SDS011;33659;42.672;23.354;2024-01-25T10:52:41;7.73;;;2.87;;
11691;SDS011;33659;42.672;23.354;2024-01-25T10:55:09;7.37;;;2.83;;
11691;SDS011;33659;42.672;23.354;2024-01-25T10:57:38;6.13;;;2.80;;
11691;SDS011;33659;42.672;23.354;2024-01-25T11:00:09;7.47;;;2.87;;
11691;SDS011;33659;42.672;23.354;2024-01-25T11:02:37;8.10;;;3.17;;
11691;SDS011;33659;42.672;23.354;2024-01-25T11:05:06;2.97;;;2.30;;
11691;SDS011;33659;42.672;23.354;2024-01-25T11:07:40;4.63;;;3.00;;
11691;SDS011;33659;42.672;23.354;2024-01-25T11:10:11;3.03;;;2.60;;
11691;SDS011;33659;42.672;23.354;2024-01-25T11:12:50;6.77;;;2.70;;
11691;SDS011;33659;42.672;23.354;2024-01-25T11:15:19;4.57;;;3.13;;
11691;SDS011;33659;42.672;23.354;2024-01-25T11:17:50;7.17;;;3.07;;
11691;SDS011;33659;42.672;23.354;2024-01-25T11:20:19;6.33;;;3.07;;
11691;SDS011;33659;42.672;23.354;2024-01-25T11:22:47;4.93;;;2.67;;
11691;SDS011;33659;42.672;23.354;2024-01-25T11:25:20;8.57;;;2.70;;
11691;SDS011;33659;42.672;23.354;2024-01-25T11:27:47;4.63;;;3.00;;
11691;SDS011;33659;42.672;23.354;2024-01-25T11:30:17;7.57;;;3.20;;
11691;SDS011;33659;42.672;23.354;2024-01-25T11:32:45;5.77;;;2.63;;
11691;SDS011;33659;42.672;23.354;2024-01-25T11:35:12;8.83;;;2.73;;
11691;SDS011;33659;42.672;23.354;2024-01-25T11:37:42;7.13;;;3.17;;
11691;SDS011;33659;42.672;23.354;2024-01-25T11:40:10;11.00;;;2.93;;
11691;SDS011;33659;42.672;23.354;2024-01-25T11:42:38;8.47;;;3.00;;
11691;SDS011;33659;42.672;23.354;2024-01-25T11:45:06;7.03;;;2.30;;
11691;SDS011;33659;42.672;23.354;2024-01-25T11:47:35;3.77;;;2.43;;
11691;SDS011;33659;42.672;23.354;2024-01-25T11:50:02;5.27;;;2.47;;
11691;SDS011;33659;42.672;23.354;2024-01-25T11:52:28;7.70;;;2.50;;
11691;SDS011;33659;42.672;23.354;2024-01-25T11:54:57;8.17;;;2.43;;
11691;SDS011;33659;42.672;23.354;2024-01-25T11:57:23;9.07;;;2.80;;
11691;SDS011;33659;42.672;23.354;2024-01-25T11:59:52;4.47;;;2.57;;
11691;SDS011;33659;42.672;23.354;2024-01-25T12:02:19;5.20;;;2.90;;
11691;SDS011;33659;42.672;23.354;2024-01-25T12:04:46;4.23;;;2.60;;
11691;SDS011;33659;42.672;23.354;2024-01-25T12:07:13;4.03;;;2.33;;
11691;SDS011;33659;42.672;23.354;2024-01-25T12:09:40;5.83;;;2.67;;
11691;SDS011;33659;42.672;23.354;2024-01-25T12:12:08;7.60;;;2.30;;
11691;SDS011;33659;42.672;23.354;2024-01-25T12:14:35;5.73;;;2.97;;
11691;SDS011;33659;42.672;23.354;2024-01-25T12:17:04;8.83;;;3.53;;
11691;SDS011;33659;42.672;23.354;2024-01-25T12:19:32;6.20;;;2.93;;
11691;SDS011;33659;42.672;23.354;2024-01-25T12:21:59;3.80;;;2.50;;
11691;SDS011;33659;42.672;23.354;2024-01-25T12:24:26;9.03;;;2.83;;
11691;SDS011;33659;42.672;23.354;2024-01-25T12:26:54;6.73;;;2.97;;
11691;SDS011;33659;42.672;23.354;2024-01-25T12:29:20;5.97;;;2.67;;
11691;SDS011;33659;42.672;23.354;2024-01-25T12:31:48;5.27;;;2.60;;
11691;SDS011;33659;42.672;23.354;2024-01-25T12:34:16;6.90;;;2.50;;
11691;SDS011;33659;42.672;23.354;2024-01-25T12:36:43;8.20;;;2.40;;
11691;SDS011;33659;42.672;23.354;2024-01-25T12:39:09;5.60;;;2.40;;
11691;SDS011;33659;42.672;23.354;2024-01-25T12:41:38;5.73;;;2.40;;
11691;SDS011;33659;42.672;23.354;2024-01-25T12:44:04;5.17;;;2.80;;
11691;SDS011;33659;42.672;23.354;2024-01-25T12:46:31;4.60;;;1.90;;
11691;SDS011;33659;42.672;23.354;2024-01-25T12:48:58;3.07;;;1.83;;
11691;SDS011;33659;42.672;23.354;2024-01-25T12:51:26;4.77;;;2.13;;
11691;SDS011;33659;42.672;23.354;2024-01-25T12:53:53;6.10;;;2.37;;
11691;SDS011;33659;42.672;23.354;2024-01-25T12:56:20;6.47;;;2.53;;
11691;SDS011;33659;42.672;23.354;2024-01-25T12:58:46;6.27;;;2.30;;
11691;SDS011;33659;42.672;23.354;2024-01-25T13:01:13;5.80;;;2.30;;
11691;SDS011;33659;42.672;23.354;2024-01-25T13:03:40;3.63;;;2.17;;
11691;SDS011;33659;42.672;23.354;2024-01-25T13:06:06;6.20;;;2.57;;
11691;SDS011;33659;42.672;23.354;2024-01-25T13:08:34;4.33;;;2.10;;
11691;SDS011;33659;42.672;23.354;2024-01-25T13:11:01;3.60;;;1.87;;
11691;SDS011;33659;42.672;23.354;2024-01-25T13:13:28;5.53;;;2.20;;
11691;SDS011;33659;42.672;23.354;2024-01-25T13:15:54;4.37;;;2.00;;
11691;SDS011;33659;42.672;23.354;2024-01-25T13:18:21;7.40;;;2.70;;
11691;SDS011;33659;42.672;23.354;2024-01-25T13:20:48;3.70;;;1.70;;
11691;SDS011;33659;42.672;23.354;2024-01-25T13:23:14;3.83;;;2.57;;
11691;SDS011;33659;42.672;23.354;2024-01-25T13:25:42;4.00;;;2.30;;
11691;SDS011;33659;42.672;23.354;2024-01-25T13:28:09;3.23;;;2.33;;
11691;SDS011;33659;42.672;23.354;2024-01-25T13:30:36;5.17;;;2.40;;
11691;SDS011;33659;42.672;23.354;2024-01-25T13:33:02;4.03;;;2.50;;
11691;SDS011;33659;42.672;23.354;2024-01-25T13:35:29;6.10;;;2.30;;
11691;SDS011;33659;42.672;23.354;2024-01-25T13:37:56;3.83;;;2.37;;
11691;SDS011;33659;42.672;23.354;2024-01-25T13:40:26;2.93;;;1.73;;
11691;SDS011;33659;42.672;23.354;2024-01-25T13:42:54;5.50;;;2.60;;
11691;SDS011;33659;42.672;23.354;2024-01-25T13:45:20;5.03;;;2.37;;
11691;SDS011;33659;42.672;23.354;2024-01-25T13:47:47;7.47;;;2.83;;
11691;SDS011;33659;42.672;23.354;2024-01-25T13:50:14;8.50;;;2.80;;
11691;SDS011;33659;42.672;23.354;2024-01-25T13:52:40;7.10;;;3.20;;
11691;SDS011;33659;42.672;23.354;2024-01-25T13:55:07;9.10;;;2.97;;
11691;SDS011;33659;42.672;23.354;2024-01-25T13:57:34;4.27;;;2.80;;
11691;SDS011;33659;42.672;23.354;2024-01-25T14:00:03;7.80;;;3.13;;
11691;SDS011;33659;42.672;23.354;2024-01-25T14:02:31;5.40;;;2.47;;
11691;SDS011;33659;42.672;23.354;2024-01-25T14:04:58;5.83;;;2.47;;
11691;SDS011;33659;42.672;23.354;2024-01-25T14:07:24;5.67;;;2.47;;
11691;SDS011;33659;42.672;23.354;2024-01-25T14:09:51;3.70;;;2.40;;
11691;SDS011;33659;42.672;23.354;2024-01-25T14:12:18;6.00;;;2.40;;
11691;SDS011;33659;42.672;23.354;2024-01-25T14:14:44;4.33;;;2.30;;
11691;SDS011;33659;42.672;23.354;2024-01-25T14:17:12;6.97;;;2.63;;
11691;SDS011;33659;42.672;23.354;2024-01-25T14:19:39;7.67;;;2.70;;
11691;SDS011;33659;42.672;23.354;2024-01-25T14:22:06;8.10;;;2.70;;
11691;SDS011;33659;42.672;23.354;2024-01-25T14:24:33;4.00;;;2.40;;
11691;SDS011;33659;42.672;23.354;2024-01-25T14:26:59;5.30;;;2.47;;
11691;SDS011;33659;42.672;23.354;2024-01-25T14:29:26;5.20;;;3.00;;
11691;SDS011;33659;42.672;23.354;2024-01-25T14:31:57;6.40;;;2.30;;
11691;SDS011;33659;42.672;23.354;2024-01-25T14:34:25;4.63;;;2.50;;